Pine Valley, California
Current Conditions -  °F | °C
As of 2:53 PM on Wednesday 22 Oct 2014 (Local Time) from KRNM Reporting Station
Clear Clear  
Wind Chill: 84°   Ceiling: Unl
Heat Index: 84°   Visibility: 10mi
Dew Point: 48°   Wind: 12mph
Humidity: 28%   Direction: 270°W
Pressure: 29.92"   Gusts: NA
Location:  32.86°N, 116.5°W
Report Text: KRNM 222153Z 27010KT 10SM CLR 29/09 A2992 RMK AO2 SLP120 T02890089
Loading
Personal Weather Stations






























Interactive Weather Map
Tropical Storm Tracking
New forecast layout! Learn more

10-Day Weather Forecast

Advertisements
Track Severe Weather on mobile